createdAt,value
2023-05-07T00:00:27.575Z,17.25
2023-05-07T00:03:31.394Z,17.33
2023-05-07T00:06:36.925Z,17.17
2023-05-07T00:09:41.119Z,17.31
2023-05-07T00:12:44.997Z,17.36
2023-05-07T00:15:48.714Z,17.35
2023-05-07T00:18:52.479Z,17.60
2023-05-07T00:21:58.148Z,17.70
2023-05-07T00:25:01.960Z,17.78
2023-05-07T00:28:05.859Z,17.56
2023-05-07T00:31:09.785Z,17.75
2023-05-07T00:34:13.591Z,17.86
2023-05-07T00:37:19.269Z,17.56
2023-05-07T00:40:23.120Z,17.81
2023-05-07T00:43:26.866Z,17.96
2023-05-07T00:46:31.590Z,17.98
2023-05-07T00:49:42.331Z,17.80
2023-05-07T00:52:47.610Z,17.77
2023-05-07T00:55:51.542Z,17.65
2023-05-07T00:58:55.622Z,17.70
2023-05-07T01:01:59.490Z,17.54
2023-05-07T01:05:04.485Z,17.36
2023-05-07T01:08:10.273Z,17.31
2023-05-07T01:11:14.721Z,17.41
2023-05-07T01:14:18.679Z,17.08
2023-05-07T01:17:22.412Z,17.30
2023-05-07T01:20:27.259Z,17.48
2023-05-07T01:23:36.866Z,17.33
2023-05-07T01:26:41.060Z,17.08
2023-05-07T01:29:45.320Z,17.06
2023-05-07T01:32:54.268Z,17.14
2023-05-07T01:35:59.740Z,17.32
2023-05-07T01:39:05.587Z,17.43
2023-05-07T01:42:09.907Z,17.34
2023-05-07T01:45:13.970Z,17.45
2023-05-07T01:48:18.345Z,17.36
2023-05-07T01:51:23.474Z,17.22
2023-05-07T01:54:30.428Z,16.98
2023-05-07T01:57:35.575Z,17.02
2023-05-07T02:00:39.591Z,17.22
2023-05-07T02:03:44.280Z,17.11
2023-05-07T02:06:56.978Z,17.27
2023-05-07T02:10:02.553Z,17.35
2023-05-07T02:13:06.387Z,17.47
2023-05-07T02:16:10.241Z,17.43
2023-05-07T02:19:15.560Z,17.64
2023-05-07T02:22:19.231Z,17.71
2023-05-07T02:25:24.530Z,17.82
2023-05-07T02:28:28.276Z,17.83
2023-05-07T02:31:36.771Z,17.44
2023-05-07T02:34:40.635Z,17.51
2023-05-07T02:37:44.259Z,17.56
2023-05-07T02:40:49.617Z,17.56
2023-05-07T02:43:53.788Z,17.58
2023-05-07T02:46:57.455Z,17.55
2023-05-07T02:50:02.062Z,17.67
2023-05-07T02:53:07.032Z,17.61
2023-05-07T02:56:12.186Z,17.61
2023-05-07T02:59:15.922Z,17.74
2023-05-07T03:02:20.227Z,17.38
2023-05-07T03:05:24.012Z,17.57
2023-05-07T03:08:27.704Z,17.54
2023-05-07T03:11:32.880Z,17.51
2023-05-07T03:14:36.449Z,17.73
2023-05-07T03:17:40.357Z,17.83
2023-05-07T03:20:44.030Z,17.87
2023-05-07T03:23:47.789Z,17.88
2023-05-07T03:26:52.886Z,17.78
2023-05-07T03:29:57.013Z,17.53
2023-05-07T03:33:01.105Z,17.46
2023-05-07T03:36:05.991Z,17.72
2023-05-07T03:39:09.769Z,17.79
2023-05-07T03:42:18.433Z,17.77
2023-05-07T03:45:25.164Z,17.78
2023-05-07T03:48:37.673Z,17.79
2023-05-07T03:51:42.146Z,17.70
2023-05-07T03:54:45.828Z,17.69
2023-05-07T03:57:54.397Z,17.97
2023-05-07T04:00:58.473Z,18.02
2023-05-07T04:04:05.687Z,18.02
2023-05-07T04:07:11.918Z,17.87
2023-05-07T04:10:19.571Z,18.29
2023-05-07T04:13:27.635Z,18.25
2023-05-07T04:16:32.260Z,18.06
2023-05-07T04:19:36.469Z,17.75
2023-05-07T04:22:40.274Z,17.83
2023-05-07T04:25:44.123Z,18.03
2023-05-07T04:29:01.712Z,18.22
2023-05-07T04:32:10.326Z,18.41
2023-05-07T04:35:17.212Z,18.38
2023-05-07T04:38:21.470Z,18.30
2023-05-07T04:41:27.985Z,18.20
2023-05-07T04:44:33.977Z,18.76
2023-05-07T04:47:37.653Z,18.91
2023-05-07T04:50:41.489Z,18.95
2023-05-07T04:53:47.299Z,19.20
2023-05-07T04:56:51.398Z,19.30
2023-05-07T04:59:57.071Z,19.45
2023-05-07T05:03:01.332Z,19.10
2023-05-07T05:06:06.824Z,19.39
2023-05-07T05:09:12.382Z,19.61
2023-05-07T05:12:17.852Z,19.44
2023-05-07T05:15:23.477Z,19.63
2023-05-07T05:18:27.561Z,19.93
2023-05-07T05:21:31.461Z,19.88
2023-05-07T05:24:41.047Z,20.29
2023-05-07T05:27:45.484Z,20.38
2023-05-07T05:30:51.513Z,20.24
2023-05-07T05:33:56.242Z,20.32
2023-05-07T05:37:01.779Z,20.32
2023-05-07T05:40:06.664Z,20.41
2023-05-07T05:43:10.775Z,20.89
2023-05-07T05:46:17.886Z,20.93
2023-05-07T05:49:21.864Z,21.39
2023-05-07T05:52:26.415Z,21.33
2023-05-07T05:55:33.611Z,21.54
2023-05-07T05:58:37.652Z,21.39
2023-05-07T06:01:45.900Z,21.37
2023-05-07T06:04:49.830Z,21.26
2023-05-07T06:07:56.694Z,21.88
2023-05-07T06:11:01.819Z,21.90
2023-05-07T06:14:09.132Z,22.35
2023-05-07T06:17:14.824Z,22.06
2023-05-07T06:20:19.162Z,21.80
2023-05-07T06:23:23.157Z,21.98
2023-05-07T06:26:27.069Z,22.10
2023-05-07T06:29:32.792Z,22.40
2023-05-07T06:32:39.652Z,22.21
2023-05-07T06:35:43.814Z,21.88
2023-05-07T06:38:47.763Z,22.82
2023-05-07T06:41:52.844Z,22.47
2023-05-07T06:45:04.544Z,22.60
2023-05-07T06:48:10.164Z,23.17
2023-05-07T06:51:23.830Z,23.02
2023-05-07T06:54:28.324Z,23.10
2023-05-07T06:57:32.503Z,23.69
2023-05-07T07:00:36.505Z,24.02
2023-05-07T07:03:41.871Z,23.61
2023-05-07T07:06:45.829Z,24.01
2023-05-07T07:09:52.837Z,23.82
2023-05-07T07:12:57.294Z,23.81
2023-05-07T07:16:02.801Z,23.80
2023-05-07T07:19:08.418Z,24.11
2023-05-07T07:22:13.074Z,23.79
2023-05-07T07:25:16.989Z,24.02
2023-05-07T07:28:23.428Z,23.87
2023-05-07T07:31:27.537Z,23.88
2023-05-07T07:34:32.920Z,23.82
2023-05-07T07:37:38.573Z,23.96
2023-05-07T07:40:42.607Z,23.74
2023-05-07T07:43:49.809Z,23.69
2023-05-07T07:46:56.830Z,24.41
2023-05-07T07:50:04.193Z,24.12
2023-05-07T07:53:08.296Z,24.73
2023-05-07T07:56:12.720Z,24.90
2023-05-07T07:59:20.058Z,25.25
2023-05-07T08:02:26.652Z,24.82
2023-05-07T08:05:32.325Z,25.36
2023-05-07T08:08:37.108Z,25.34
2023-05-07T08:11:41.329Z,25.48
2023-05-07T08:14:45.331Z,25.19
2023-05-07T08:17:49.193Z,25.45
2023-05-07T08:20:55.054Z,25.34
2023-05-07T08:24:02.451Z,25.03
2023-05-07T08:27:06.987Z,24.92
2023-05-07T08:30:12.897Z,25.08
2023-05-07T08:33:17.661Z,25.49
2023-05-07T08:36:23.037Z,25.37
2023-05-07T08:39:27.082Z,25.83
2023-05-07T08:42:33.860Z,25.82
2023-05-07T08:45:38.033Z,26.30
2023-05-07T08:48:42.335Z,26.20
2023-05-07T08:51:53.897Z,25.48
2023-05-07T08:54:58.957Z,25.76
2023-05-07T08:58:03.750Z,26.28
2023-05-07T09:01:11.987Z,26.19
2023-05-07T09:04:16.102Z,26.12
2023-05-07T09:07:24.035Z,26.24
2023-05-07T09:10:28.745Z,26.54
2023-05-07T09:13:32.769Z,26.16
2023-05-07T09:16:38.998Z,26.20
2023-05-07T09:19:42.946Z,26.00
2023-05-07T09:22:48.345Z,25.00
2023-05-07T09:26:03.176Z,25.91
2023-05-07T09:29:10.548Z,26.25
2023-05-07T09:32:14.746Z,26.20
2023-05-07T09:35:19.198Z,26.09
2023-05-07T09:38:30.144Z,24.67
2023-05-07T09:41:45.584Z,25.97
2023-05-07T09:45:02.438Z,26.07
2023-05-07T09:48:14.598Z,25.88
2023-05-07T09:51:24.744Z,26.47
2023-05-07T09:54:31.881Z,26.78
2023-05-07T09:57:37.346Z,26.68
2023-05-07T10:00:45.674Z,26.50
2023-05-07T10:03:54.247Z,26.78
2023-05-07T10:06:59.612Z,26.27
2023-05-07T10:10:07.334Z,25.80
2023-05-07T10:13:16.083Z,25.57
2023-05-07T10:16:25.338Z,26.43
2023-05-07T10:19:30.712Z,26.21
2023-05-07T10:22:41.277Z,26.14
2023-05-07T10:25:46.807Z,25.98
2023-05-07T10:29:03.854Z,26.30
2023-05-07T10:32:30.039Z,27.08
2023-05-07T10:35:38.680Z,26.76
2023-05-07T10:38:43.231Z,27.15
2023-05-07T10:41:50.477Z,26.74
2023-05-07T10:44:55.048Z,26.06
2023-05-07T10:51:28.292Z,27.06
2023-05-07T10:54:40.211Z,27.18
2023-05-07T10:57:49.724Z,27.22
2023-05-07T11:01:00.505Z,27.40
2023-05-07T11:04:16.584Z,27.04
2023-05-07T11:07:35.422Z,27.07
2023-05-07T11:10:55.328Z,26.55
2023-05-07T11:14:45.967Z,27.23
2023-05-07T11:18:10.602Z,27.05
2023-05-07T11:21:35.261Z,27.06
2023-05-07T11:25:02.764Z,27.38
2023-05-07T11:28:11.636Z,27.29
2023-05-07T11:31:27.384Z,26.59
2023-05-07T11:34:32.761Z,26.53
2023-05-07T11:37:37.290Z,27.17
2023-05-07T11:40:52.276Z,26.77
2023-05-07T11:44:01.064Z,26.67
2023-05-07T11:47:06.428Z,26.11
2023-05-07T11:50:12.230Z,25.98
2023-05-07T11:53:15.971Z,26.30
2023-05-07T11:56:21.155Z,26.75
2023-05-07T11:59:24.910Z,26.37
2023-05-07T12:02:31.017Z,26.42
2023-05-07T12:05:34.904Z,26.37
2023-05-07T12:08:40.036Z,26.73
2023-05-07T12:11:48.716Z,26.94
2023-05-07T12:14:52.481Z,27.36
2023-05-07T12:17:57.977Z,27.44
2023-05-07T12:21:02.671Z,26.71
2023-05-07T12:24:07.151Z,26.21
2023-05-07T12:27:12.136Z,26.13
2023-05-07T12:30:16.216Z,25.89
2023-05-07T12:33:26.092Z,25.70
2023-05-07T12:36:39.696Z,26.68
2023-05-07T12:39:47.511Z,26.79
2023-05-07T12:42:57.695Z,27.19
2023-05-07T12:46:05.803Z,27.17
2023-05-07T12:49:11.409Z,27.17
2023-05-07T12:52:15.980Z,26.95
2023-05-07T12:55:20.183Z,26.89
2023-05-07T12:58:28.295Z,26.96
2023-05-07T13:01:32.981Z,27.36
2023-05-07T13:04:38.534Z,27.03
2023-05-07T13:07:43.004Z,27.20
2023-05-07T13:10:46.685Z,27.21
2023-05-07T13:13:50.538Z,26.36
2023-05-07T13:16:54.255Z,26.65
2023-05-07T13:19:59.342Z,26.96
2023-05-07T13:23:05.515Z,26.97
2023-05-07T13:26:22.480Z,26.83
2023-05-07T13:29:31.582Z,27.18
2023-05-07T13:32:35.462Z,27.35
2023-05-07T13:35:41.085Z,27.49
2023-05-07T13:38:44.973Z,27.31
2023-05-07T13:41:48.709Z,27.21
2023-05-07T13:44:52.591Z,26.98
2023-05-07T13:47:57.809Z,27.30
2023-05-07T13:51:03.017Z,26.79
2023-05-07T13:54:06.952Z,27.21
2023-05-07T13:57:10.817Z,27.26
2023-05-07T14:00:15.723Z,26.64
2023-05-07T14:03:21.024Z,26.93
2023-05-07T14:06:26.400Z,26.62
2023-05-07T14:09:30.210Z,26.44
2023-05-07T14:12:34.436Z,26.79
2023-05-07T14:15:38.726Z,26.36
2023-05-07T14:18:42.507Z,26.48
2023-05-07T14:21:47.718Z,27.00
2023-05-07T14:25:05.403Z,26.72
2023-05-07T14:28:16.043Z,26.88
2023-05-07T14:31:19.851Z,27.03
2023-05-07T14:34:23.777Z,27.01
2023-05-07T14:37:29.505Z,26.79
2023-05-07T14:40:33.458Z,26.89
2023-05-07T14:43:37.205Z,26.65
2023-05-07T14:46:41.128Z,27.02
2023-05-07T14:49:44.807Z,26.99
2023-05-07T14:52:50.068Z,27.03
2023-05-07T14:55:53.926Z,26.82
2023-05-07T14:58:57.746Z,26.76
2023-05-07T15:02:03.783Z,26.56
2023-05-07T15:05:10.204Z,26.74
2023-05-07T15:08:15.616Z,26.86
2023-05-07T15:11:19.476Z,26.84
2023-05-07T15:14:23.644Z,26.77
2023-05-07T15:17:27.610Z,25.95
2023-05-07T15:20:31.612Z,25.71
2023-05-07T15:23:36.953Z,25.98
2023-05-07T15:26:40.472Z,26.22
2023-05-07T15:29:44.339Z,26.11
2023-05-07T15:32:48.715Z,26.28
2023-05-07T15:35:52.563Z,25.87
2023-05-07T15:38:57.771Z,25.97
2023-05-07T15:42:02.511Z,25.83
2023-05-07T15:45:07.285Z,26.06
2023-05-07T15:48:12.019Z,25.59
2023-05-07T15:51:15.881Z,25.56
2023-05-07T15:54:21.432Z,25.31
2023-05-07T15:57:25.556Z,25.43
2023-05-07T16:00:29.689Z,25.36
2023-05-07T16:03:34.407Z,25.05
2023-05-07T16:06:38.283Z,24.91
2023-05-07T16:09:43.381Z,24.74
2023-05-07T16:12:47.183Z,25.10
2023-05-07T16:15:50.995Z,24.96
2023-05-07T16:18:54.804Z,24.44
2023-05-07T16:21:58.879Z,24.23
2023-05-07T16:25:05.522Z,24.27
2023-05-07T16:28:09.328Z,24.26
2023-05-07T16:31:13.231Z,24.47
2023-05-07T16:34:17.009Z,24.13
2023-05-07T16:37:21.722Z,23.92
2023-05-07T16:40:27.349Z,23.76
2023-05-07T16:43:31.207Z,23.46
2023-05-07T16:46:35.033Z,23.43
2023-05-07T16:49:38.891Z,23.29
2023-05-07T16:52:42.667Z,23.43
2023-05-07T16:55:47.981Z,23.31
2023-05-07T16:58:51.813Z,23.18
2023-05-07T17:01:56.939Z,23.17
2023-05-07T17:05:01.570Z,22.93
2023-05-07T17:08:05.699Z,22.92
2023-05-07T17:11:10.977Z,23.02
2023-05-07T17:14:14.771Z,22.91
2023-05-07T17:17:18.761Z,22.83
2023-05-07T17:20:23.918Z,22.79
2023-05-07T17:23:27.821Z,22.83
2023-05-07T17:26:35.504Z,22.82
2023-05-07T17:29:39.303Z,22.71
2023-05-07T17:32:43.010Z,22.45
2023-05-07T17:35:46.823Z,22.39
2023-05-07T17:38:50.592Z,22.29
2023-05-07T17:41:55.860Z,22.43
2023-05-07T17:44:59.721Z,22.42
2023-05-07T17:48:03.907Z,22.28
2023-05-07T17:51:07.829Z,22.41
2023-05-07T17:54:11.854Z,22.45
2023-05-07T17:57:17.093Z,22.25
2023-05-07T18:00:21.178Z,22.09
2023-05-07T18:03:25.794Z,22.25
2023-05-07T18:06:29.632Z,22.07
2023-05-07T18:09:33.443Z,22.19
2023-05-07T18:12:38.687Z,21.95
2023-05-07T18:15:42.569Z,21.64
2023-05-07T18:18:47.190Z,21.81
2023-05-07T18:21:51.185Z,21.71
2023-05-07T18:24:56.188Z,21.64
2023-05-07T18:28:01.430Z,21.33
2023-05-07T18:31:06.311Z,21.44
2023-05-07T18:34:10.572Z,21.53
2023-05-07T18:37:14.298Z,21.34
2023-05-07T18:40:18.416Z,21.45
2023-05-07T18:43:23.600Z,21.46
2023-05-07T18:46:29.521Z,21.17
2023-05-07T18:49:33.350Z,21.33
2023-05-07T18:52:37.445Z,20.98
2023-05-07T18:55:41.581Z,21.00
2023-05-07T18:58:46.769Z,21.04
2023-05-07T19:01:50.684Z,20.95
2023-05-07T19:04:54.567Z,20.92
2023-05-07T19:07:58.449Z,21.00
2023-05-07T19:11:02.313Z,21.19
2023-05-07T19:14:07.619Z,21.25
2023-05-07T19:17:13.348Z,21.12
2023-05-07T19:20:17.125Z,21.13
2023-05-07T19:23:21.235Z,21.30
2023-05-07T19:26:25.241Z,21.23
2023-05-07T19:29:30.452Z,20.91
2023-05-07T19:32:34.292Z,20.80
2023-05-07T19:35:38.404Z,20.92
2023-05-07T19:38:42.132Z,20.87
2023-05-07T19:41:46.186Z,20.74
2023-05-07T19:44:51.517Z,20.58
2023-05-07T19:47:55.229Z,20.45
2023-05-07T19:51:00.168Z,20.36
2023-05-07T19:54:04.180Z,20.41
2023-05-07T19:57:08.022Z,20.28
2023-05-07T20:00:15.016Z,20.08
2023-05-07T20:03:19.516Z,19.99
2023-05-07T20:06:24.274Z,19.90
2023-05-07T20:09:28.024Z,19.86
2023-05-07T20:12:31.784Z,19.91
2023-05-07T20:15:38.100Z,19.79
2023-05-07T20:18:42.085Z,19.72
2023-05-07T20:21:46.187Z,19.61
2023-05-07T20:24:49.934Z,19.49
2023-05-07T20:27:53.956Z,19.42
2023-05-07T20:30:59.188Z,19.36
2023-05-07T20:34:03.271Z,19.43
2023-05-07T20:37:07.030Z,19.40
2023-05-07T20:40:11.878Z,19.24
2023-05-07T20:43:15.903Z,19.13
2023-05-07T20:46:23.394Z,19.07
2023-05-07T20:49:27.442Z,19.17
2023-05-07T20:52:31.229Z,19.17
2023-05-07T20:55:35.058Z,19.02
2023-05-07T20:58:38.814Z,18.97
2023-05-07T21:01:44.160Z,18.93
2023-05-07T21:04:48.040Z,18.85
2023-05-07T21:07:51.847Z,18.89
2023-05-07T21:10:55.998Z,18.90
2023-05-07T21:13:59.878Z,18.66
2023-05-07T21:17:07.352Z,18.38
2023-05-07T21:20:11.877Z,18.44
2023-05-07T21:23:15.877Z,18.53
2023-05-07T21:26:20.526Z,18.22
2023-05-07T21:29:24.953Z,18.34
2023-05-07T21:32:30.196Z,18.17
2023-05-07T21:35:34.026Z,18.13
2023-05-07T21:38:38.778Z,17.96
2023-05-07T21:41:42.593Z,17.92
2023-05-07T21:44:46.525Z,17.88
2023-05-07T21:47:51.787Z,17.81
2023-05-07T21:51:02.345Z,17.99
2023-05-07T21:54:07.065Z,17.49
2023-05-07T21:57:11.215Z,17.44
2023-05-07T22:00:16.592Z,17.13
2023-05-07T22:03:21.986Z,17.08
2023-05-07T22:06:26.563Z,17.26
2023-05-07T22:09:30.356Z,17.24
2023-05-07T22:12:34.161Z,16.91
2023-05-07T22:15:49.138Z,17.07
2023-05-07T22:19:01.694Z,17.47
2023-05-07T22:22:05.579Z,17.55
2023-05-07T22:25:10.844Z,17.65
2023-05-07T22:28:14.573Z,17.74
2023-05-07T22:31:18.401Z,17.82
2023-05-07T22:34:23.754Z,17.61
2023-05-07T22:37:27.726Z,17.58
2023-05-07T22:40:31.492Z,17.37
2023-05-07T22:43:35.493Z,17.47
2023-05-07T22:46:39.299Z,17.63
2023-05-07T22:49:44.381Z,17.29
2023-05-07T22:52:48.011Z,17.33
2023-05-07T22:55:51.859Z,17.58
2023-05-07T22:58:55.577Z,17.60
2023-05-07T23:01:59.674Z,17.50
2023-05-07T23:05:05.049Z,17.50
2023-05-07T23:08:08.914Z,17.44
2023-05-07T23:11:13.075Z,17.17
2023-05-07T23:14:16.850Z,17.16
2023-05-07T23:17:20.702Z,17.48
2023-05-07T23:20:25.903Z,17.34
2023-05-07T23:23:33.926Z,17.15
2023-05-07T23:26:37.760Z,17.07
2023-05-07T23:29:41.477Z,16.97
2023-05-07T23:32:45.151Z,16.83
2023-05-07T23:35:50.292Z,16.79
2023-05-07T23:38:53.942Z,16.84
2023-05-07T23:41:57.596Z,16.75
2023-05-07T23:45:01.452Z,16.63
2023-05-07T23:48:05.320Z,16.64
2023-05-07T23:51:10.616Z,16.76
2023-05-07T23:54:14.303Z,16.79
2023-05-07T23:57:17.979Z,16.60
